sensor_id;sensor_type;location;lat;lon;timestamp;P1;durP1;ratioP1;P2;durP2;ratioP2
30036;SDS011;36325;51.512;-0.382;2023-04-03T00:01:25;12.27;;;2.28;;
30036;SDS011;36325;51.512;-0.382;2023-04-03T00:03:52;10.05;;;2.70;;
30036;SDS011;36325;51.512;-0.382;2023-04-03T00:06:19;15.45;;;2.92;;
30036;SDS011;36325;51.512;-0.382;2023-04-03T00:08:46;14.90;;;3.25;;
30036;SDS011;36325;51.512;-0.382;2023-04-03T00:11:14;10.02;;;3.35;;
30036;SDS011;36325;51.512;-0.382;2023-04-03T00:13:42;18.10;;;4.15;;
30036;SDS011;36325;51.512;-0.382;2023-04-03T00:16:11;23.27;;;3.88;;
30036;SDS011;36325;51.512;-0.382;2023-04-03T00:18:38;17.70;;;3.92;;
30036;SDS011;36325;51.512;-0.382;2023-04-03T00:21:07;18.45;;;3.55;;
30036;SDS011;36325;51.512;-0.382;2023-04-03T00:23:35;11.48;;;2.90;;
30036;SDS011;36325;51.512;-0.382;2023-04-03T00:26:02;12.30;;;3.63;;
30036;SDS011;36325;51.512;-0.382;2023-04-03T00:28:29;9.35;;;2.97;;
30036;SDS011;36325;51.512;-0.382;2023-04-03T00:30:56;11.35;;;2.42;;
30036;SDS011;36325;51.512;-0.382;2023-04-03T00:33:24;17.77;;;3.30;;
30036;SDS011;36325;51.512;-0.382;2023-04-03T00:35:51;11.27;;;3.53;;
30036;SDS011;36325;51.512;-0.382;2023-04-03T00:38:19;12.27;;;3.33;;
30036;SDS011;36325;51.512;-0.382;2023-04-03T00:40:47;16.42;;;2.88;;
30036;SDS011;36325;51.512;-0.382;2023-04-03T00:43:20;5.90;;;3.05;;
30036;SDS011;36325;51.512;-0.382;2023-04-03T00:45:50;24.55;;;3.53;;
30036;SDS011;36325;51.512;-0.382;2023-04-03T00:48:32;21.15;;;3.80;;
30036;SDS011;36325;51.512;-0.382;2023-04-03T00:51:10;9.20;;;3.45;;
30036;SDS011;36325;51.512;-0.382;2023-04-03T00:53:48;7.93;;;2.53;;
30036;SDS011;36325;51.512;-0.382;2023-04-03T00:56:19;19.77;;;3.25;;
30036;SDS011;36325;51.512;-0.382;2023-04-03T00:59:00;7.25;;;2.17;;
30036;SDS011;36325;51.512;-0.382;2023-04-03T01:03:59;17.23;;;2.75;;
30036;SDS011;36325;51.512;-0.382;2023-04-03T01:06:28;14.48;;;3.13;;
30036;SDS011;36325;51.512;-0.382;2023-04-03T01:09:05;9.98;;;2.88;;
30036;SDS011;36325;51.512;-0.382;2023-04-03T01:11:32;11.15;;;2.47;;
30036;SDS011;36325;51.512;-0.382;2023-04-03T01:14:01;18.77;;;2.83;;
30036;SDS011;36325;51.512;-0.382;2023-04-03T01:16:29;12.02;;;2.60;;
30036;SDS011;36325;51.512;-0.382;2023-04-03T01:18:59;14.98;;;2.78;;
30036;SDS011;36325;51.512;-0.382;2023-04-03T01:26:51;15.07;;;2.78;;
30036;SDS011;36325;51.512;-0.382;2023-04-03T01:29:18;16.25;;;2.58;;
30036;SDS011;36325;51.512;-0.382;2023-04-03T01:31:55;8.30;;;2.10;;
30036;SDS011;36325;51.512;-0.382;2023-04-03T01:34:24;9.88;;;2.70;;
30036;SDS011;36325;51.512;-0.382;2023-04-03T01:36:53;12.98;;;2.25;;
30036;SDS011;36325;51.512;-0.382;2023-04-03T01:39:21;10.25;;;3.05;;
30036;SDS011;36325;51.512;-0.382;2023-04-03T01:41:49;12.27;;;2.90;;
30036;SDS011;36325;51.512;-0.382;2023-04-03T01:44:37;19.73;;;2.95;;
30036;SDS011;36325;51.512;-0.382;2023-04-03T01:47:05;5.30;;;3.13;;
30036;SDS011;36325;51.512;-0.382;2023-04-03T01:49:34;15.27;;;2.53;;
30036;SDS011;36325;51.512;-0.382;2023-04-03T01:52:02;11.52;;;2.30;;
30036;SDS011;36325;51.512;-0.382;2023-04-03T01:54:29;10.35;;;2.42;;
30036;SDS011;36325;51.512;-0.382;2023-04-03T01:56:57;10.20;;;2.40;;
30036;SDS011;36325;51.512;-0.382;2023-04-03T01:59:25;10.85;;;2.30;;
30036;SDS011;36325;51.512;-0.382;2023-04-03T02:01:52;5.63;;;1.75;;
30036;SDS011;36325;51.512;-0.382;2023-04-03T02:04:20;15.38;;;3.30;;
30036;SDS011;36325;51.512;-0.382;2023-04-03T02:06:47;12.73;;;2.50;;
30036;SDS011;36325;51.512;-0.382;2023-04-03T02:09:14;16.83;;;2.85;;
30036;SDS011;36325;51.512;-0.382;2023-04-03T02:11:42;19.67;;;2.78;;
30036;SDS011;36325;51.512;-0.382;2023-04-03T02:14:10;12.55;;;2.65;;
30036;SDS011;36325;51.512;-0.382;2023-04-03T02:16:37;11.77;;;2.63;;
30036;SDS011;36325;51.512;-0.382;2023-04-03T02:19:05;11.68;;;2.75;;
30036;SDS011;36325;51.512;-0.382;2023-04-03T02:21:32;13.70;;;3.33;;
30036;SDS011;36325;51.512;-0.382;2023-04-03T02:23:59;13.88;;;2.03;;
30036;SDS011;36325;51.512;-0.382;2023-04-03T02:26:26;10.68;;;2.55;;
30036;SDS011;36325;51.512;-0.382;2023-04-03T02:28:54;9.90;;;2.30;;
30036;SDS011;36325;51.512;-0.382;2023-04-03T02:31:22;11.23;;;3.15;;
30036;SDS011;36325;51.512;-0.382;2023-04-03T02:33:51;11.57;;;2.60;;
30036;SDS011;36325;51.512;-0.382;2023-04-03T02:36:18;9.70;;;2.60;;
30036;SDS011;36325;51.512;-0.382;2023-04-03T02:38:51;11.90;;;2.17;;
30036;SDS011;36325;51.512;-0.382;2023-04-03T02:41:19;15.05;;;2.25;;
30036;SDS011;36325;51.512;-0.382;2023-04-03T02:43:49;21.08;;;2.42;;
30036;SDS011;36325;51.512;-0.382;2023-04-03T02:46:16;6.40;;;1.83;;
30036;SDS011;36325;51.512;-0.382;2023-04-03T02:48:44;9.73;;;2.40;;
30036;SDS011;36325;51.512;-0.382;2023-04-03T02:51:11;14.48;;;2.20;;
30036;SDS011;36325;51.512;-0.382;2023-04-03T02:53:39;5.85;;;2.10;;
30036;SDS011;36325;51.512;-0.382;2023-04-03T02:56:12;12.10;;;2.83;;
30036;SDS011;36325;51.512;-0.382;2023-04-03T02:58:39;11.10;;;2.33;;
30036;SDS011;36325;51.512;-0.382;2023-04-03T03:01:07;5.30;;;1.98;;
30036;SDS011;36325;51.512;-0.382;2023-04-03T03:03:35;18.17;;;2.88;;
30036;SDS011;36325;51.512;-0.382;2023-04-03T03:06:09;5.88;;;2.30;;
30036;SDS011;36325;51.512;-0.382;2023-04-03T03:08:39;7.32;;;2.45;;
30036;SDS011;36325;51.512;-0.382;2023-04-03T03:11:07;22.70;;;2.78;;
30036;SDS011;36325;51.512;-0.382;2023-04-03T03:13:35;6.28;;;2.13;;
30036;SDS011;36325;51.512;-0.382;2023-04-03T03:16:02;12.68;;;2.78;;
30036;SDS011;36325;51.512;-0.382;2023-04-03T03:18:30;10.20;;;2.70;;
30036;SDS011;36325;51.512;-0.382;2023-04-03T03:20:58;11.05;;;2.70;;
30036;SDS011;36325;51.512;-0.382;2023-04-03T03:23:27;16.42;;;3.63;;
30036;SDS011;36325;51.512;-0.382;2023-04-03T03:25:56;8.52;;;3.50;;
30036;SDS011;36325;51.512;-0.382;2023-04-03T03:28:25;14.65;;;3.78;;
30036;SDS011;36325;51.512;-0.382;2023-04-03T03:30:52;19.80;;;3.10;;
30036;SDS011;36325;51.512;-0.382;2023-04-03T03:33:21;11.15;;;2.75;;
30036;SDS011;36325;51.512;-0.382;2023-04-03T03:35:49;10.00;;;2.72;;
30036;SDS011;36325;51.512;-0.382;2023-04-03T03:38:16;9.85;;;2.58;;
30036;SDS011;36325;51.512;-0.382;2023-04-03T03:40:43;15.63;;;3.75;;
30036;SDS011;36325;51.512;-0.382;2023-04-03T03:43:11;15.70;;;2.92;;
30036;SDS011;36325;51.512;-0.382;2023-04-03T03:45:39;12.52;;;3.58;;
30036;SDS011;36325;51.512;-0.382;2023-04-03T03:48:06;10.20;;;2.80;;
30036;SDS011;36325;51.512;-0.382;2023-04-03T03:50:33;19.58;;;3.70;;
30036;SDS011;36325;51.512;-0.382;2023-04-03T03:53:00;20.17;;;3.72;;
30036;SDS011;36325;51.512;-0.382;2023-04-03T03:55:30;13.38;;;3.53;;
30036;SDS011;36325;51.512;-0.382;2023-04-03T03:57:58;10.13;;;3.40;;
30036;SDS011;36325;51.512;-0.382;2023-04-03T04:00:29;17.67;;;3.03;;
30036;SDS011;36325;51.512;-0.382;2023-04-03T04:02:57;13.88;;;3.72;;
30036;SDS011;36325;51.512;-0.382;2023-04-03T04:05:25;8.35;;;2.90;;
30036;SDS011;36325;51.512;-0.382;2023-04-03T04:07:53;11.32;;;3.90;;
30036;SDS011;36325;51.512;-0.382;2023-04-03T04:10:22;7.80;;;2.75;;
30036;SDS011;36325;51.512;-0.382;2023-04-03T04:12:50;18.13;;;3.63;;
30036;SDS011;36325;51.512;-0.382;2023-04-03T04:15:21;15.57;;;3.03;;
30036;SDS011;36325;51.512;-0.382;2023-04-03T04:17:49;15.65;;;4.22;;
30036;SDS011;36325;51.512;-0.382;2023-04-03T04:20:17;18.25;;;3.63;;
30036;SDS011;36325;51.512;-0.382;2023-04-03T04:22:45;12.90;;;4.03;;
30036;SDS011;36325;51.512;-0.382;2023-04-03T04:25:13;15.23;;;3.10;;
30036;SDS011;36325;51.512;-0.382;2023-04-03T04:27:41;11.73;;;3.88;;
30036;SDS011;36325;51.512;-0.382;2023-04-03T04:30:10;15.63;;;3.95;;
30036;SDS011;36325;51.512;-0.382;2023-04-03T04:32:38;15.02;;;3.22;;
30036;SDS011;36325;51.512;-0.382;2023-04-03T04:35:05;23.20;;;4.55;;
30036;SDS011;36325;51.512;-0.382;2023-04-03T04:37:36;13.13;;;3.93;;
30036;SDS011;36325;51.512;-0.382;2023-04-03T04:40:04;25.35;;;4.68;;
30036;SDS011;36325;51.512;-0.382;2023-04-03T04:42:31;12.90;;;3.47;;
30036;SDS011;36325;51.512;-0.382;2023-04-03T04:44:59;12.88;;;4.45;;
30036;SDS011;36325;51.512;-0.382;2023-04-03T04:47:28;15.50;;;3.03;;
30036;SDS011;36325;51.512;-0.382;2023-04-03T04:49:56;14.50;;;3.20;;
30036;SDS011;36325;51.512;-0.382;2023-04-03T04:52:24;17.65;;;3.92;;
30036;SDS011;36325;51.512;-0.382;2023-04-03T04:54:51;16.55;;;4.50;;
30036;SDS011;36325;51.512;-0.382;2023-04-03T04:57:18;13.73;;;4.60;;
30036;SDS011;36325;51.512;-0.382;2023-04-03T04:59:46;16.10;;;3.63;;
30036;SDS011;36325;51.512;-0.382;2023-04-03T05:02:13;14.80;;;4.55;;
30036;SDS011;36325;51.512;-0.382;2023-04-03T05:04:42;18.13;;;4.35;;
30036;SDS011;36325;51.512;-0.382;2023-04-03T05:07:16;19.65;;;4.40;;
30036;SDS011;36325;51.512;-0.382;2023-04-03T05:09:43;11.35;;;4.10;;
30036;SDS011;36325;51.512;-0.382;2023-04-03T05:12:12;18.55;;;4.32;;
30036;SDS011;36325;51.512;-0.382;2023-04-03T05:14:47;18.08;;;5.47;;
30036;SDS011;36325;51.512;-0.382;2023-04-03T05:17:15;30.55;;;4.90;;
30036;SDS011;36325;51.512;-0.382;2023-04-03T05:19:47;13.18;;;4.78;;
30036;SDS011;36325;51.512;-0.382;2023-04-03T05:22:16;19.70;;;3.92;;
30036;SDS011;36325;51.512;-0.382;2023-04-03T05:24:44;16.58;;;4.30;;
30036;SDS011;36325;51.512;-0.382;2023-04-03T05:27:11;15.55;;;4.63;;
30036;SDS011;36325;51.512;-0.382;2023-04-03T05:29:42;19.90;;;4.30;;
30036;SDS011;36325;51.512;-0.382;2023-04-03T05:32:14;17.77;;;4.13;;
30036;SDS011;36325;51.512;-0.382;2023-04-03T05:34:42;12.57;;;3.58;;
30036;SDS011;36325;51.512;-0.382;2023-04-03T05:37:09;15.20;;;3.92;;
30036;SDS011;36325;51.512;-0.382;2023-04-03T05:39:37;17.98;;;5.00;;
30036;SDS011;36325;51.512;-0.382;2023-04-03T05:42:07;24.77;;;4.90;;
30036;SDS011;36325;51.512;-0.382;2023-04-03T05:44:34;19.38;;;3.83;;
30036;SDS011;36325;51.512;-0.382;2023-04-03T05:47:02;18.63;;;4.20;;
30036;SDS011;36325;51.512;-0.382;2023-04-03T05:49:29;17.33;;;3.80;;
30036;SDS011;36325;51.512;-0.382;2023-04-03T05:51:57;10.57;;;4.28;;
30036;SDS011;36325;51.512;-0.382;2023-04-03T05:54:28;19.25;;;4.80;;
30036;SDS011;36325;51.512;-0.382;2023-04-03T05:57:15;12.85;;;5.18;;
30036;SDS011;36325;51.512;-0.382;2023-04-03T05:59:42;14.25;;;4.15;;
30036;SDS011;36325;51.512;-0.382;2023-04-03T06:02:12;15.80;;;3.60;;
30036;SDS011;36325;51.512;-0.382;2023-04-03T06:04:42;7.93;;;3.17;;
30036;SDS011;36325;51.512;-0.382;2023-04-03T06:07:14;9.02;;;3.25;;
30036;SDS011;36325;51.512;-0.382;2023-04-03T06:09:49;18.67;;;4.18;;
30036;SDS011;36325;51.512;-0.382;2023-04-03T06:12:17;10.57;;;4.18;;
30036;SDS011;36325;51.512;-0.382;2023-04-03T06:14:45;16.17;;;4.47;;
30036;SDS011;36325;51.512;-0.382;2023-04-03T06:17:14;14.65;;;4.63;;
30036;SDS011;36325;51.512;-0.382;2023-04-03T06:19:44;22.10;;;4.15;;
30036;SDS011;36325;51.512;-0.382;2023-04-03T06:22:12;12.98;;;3.28;;
30036;SDS011;36325;51.512;-0.382;2023-04-03T06:24:40;17.50;;;3.88;;
30036;SDS011;36325;51.512;-0.382;2023-04-03T06:27:09;12.23;;;4.72;;
30036;SDS011;36325;51.512;-0.382;2023-04-03T06:29:37;22.33;;;5.22;;
30036;SDS011;36325;51.512;-0.382;2023-04-03T06:32:05;14.38;;;4.53;;
30036;SDS011;36325;51.512;-0.382;2023-04-03T06:34:32;20.45;;;4.32;;
30036;SDS011;36325;51.512;-0.382;2023-04-03T06:36:59;17.65;;;4.97;;
30036;SDS011;36325;51.512;-0.382;2023-04-03T06:39:27;12.60;;;3.80;;
30036;SDS011;36325;51.512;-0.382;2023-04-03T06:41:54;17.10;;;4.55;;
30036;SDS011;36325;51.512;-0.382;2023-04-03T06:44:32;13.25;;;4.40;;
30036;SDS011;36325;51.512;-0.382;2023-04-03T06:47:01;17.48;;;3.80;;
30036;SDS011;36325;51.512;-0.382;2023-04-03T06:49:29;13.93;;;4.18;;
30036;SDS011;36325;51.512;-0.382;2023-04-03T06:51:56;38.95;;;5.30;;
30036;SDS011;36325;51.512;-0.382;2023-04-03T06:54:25;17.00;;;3.70;;
30036;SDS011;36325;51.512;-0.382;2023-04-03T06:56:52;19.15;;;3.85;;
30036;SDS011;36325;51.512;-0.382;2023-04-03T06:59:19;17.00;;;3.78;;
30036;SDS011;36325;51.512;-0.382;2023-04-03T07:01:46;18.63;;;3.95;;
30036;SDS011;36325;51.512;-0.382;2023-04-03T07:04:15;17.48;;;4.25;;
30036;SDS011;36325;51.512;-0.382;2023-04-03T07:06:42;15.23;;;4.10;;
30036;SDS011;36325;51.512;-0.382;2023-04-03T07:09:09;7.07;;;3.38;;
30036;SDS011;36325;51.512;-0.382;2023-04-03T07:11:38;23.67;;;4.82;;
30036;SDS011;36325;51.512;-0.382;2023-04-03T07:14:05;21.20;;;4.25;;
30036;SDS011;36325;51.512;-0.382;2023-04-03T07:16:34;7.57;;;3.63;;
30036;SDS011;36325;51.512;-0.382;2023-04-03T07:19:02;24.55;;;4.95;;
30036;SDS011;36325;51.512;-0.382;2023-04-03T07:21:29;23.63;;;4.63;;
30036;SDS011;36325;51.512;-0.382;2023-04-03T07:23:57;17.65;;;5.20;;
30036;SDS011;36325;51.512;-0.382;2023-04-03T07:26:24;21.33;;;4.30;;
30036;SDS011;36325;51.512;-0.382;2023-04-03T07:28:52;10.60;;;3.83;;
30036;SDS011;36325;51.512;-0.382;2023-04-03T07:31:19;14.90;;;5.30;;
30036;SDS011;36325;51.512;-0.382;2023-04-03T07:33:47;17.08;;;4.70;;
30036;SDS011;36325;51.512;-0.382;2023-04-03T07:36:14;15.13;;;4.50;;
30036;SDS011;36325;51.512;-0.382;2023-04-03T07:38:43;14.30;;;4.00;;
30036;SDS011;36325;51.512;-0.382;2023-04-03T07:41:13;13.32;;;4.68;;
30036;SDS011;36325;51.512;-0.382;2023-04-03T07:43:41;12.10;;;4.75;;
30036;SDS011;36325;51.512;-0.382;2023-04-03T07:46:09;14.05;;;4.40;;
30036;SDS011;36325;51.512;-0.382;2023-04-03T07:48:37;19.30;;;5.22;;
30036;SDS011;36325;51.512;-0.382;2023-04-03T07:51:04;16.95;;;4.57;;
30036;SDS011;36325;51.512;-0.382;2023-04-03T07:53:32;19.08;;;5.07;;
30036;SDS011;36325;51.512;-0.382;2023-04-03T07:55:59;8.98;;;4.03;;
30036;SDS011;36325;51.512;-0.382;2023-04-03T07:58:28;14.13;;;4.38;;
30036;SDS011;36325;51.512;-0.382;2023-04-03T08:00:55;15.55;;;4.78;;
30036;SDS011;36325;51.512;-0.382;2023-04-03T08:03:22;12.73;;;4.68;;
30036;SDS011;36325;51.512;-0.382;2023-04-03T08:05:50;12.52;;;4.85;;
30036;SDS011;36325;51.512;-0.382;2023-04-03T08:08:18;14.00;;;4.30;;
30036;SDS011;36325;51.512;-0.382;2023-04-03T08:10:49;13.63;;;5.22;;
30036;SDS011;36325;51.512;-0.382;2023-04-03T08:13:17;14.65;;;5.72;;
30036;SDS011;36325;51.512;-0.382;2023-04-03T08:15:45;18.83;;;5.97;;
30036;SDS011;36325;51.512;-0.382;2023-04-03T08:18:13;14.98;;;4.93;;
30036;SDS011;36325;51.512;-0.382;2023-04-03T08:20:41;16.58;;;4.50;;
30036;SDS011;36325;51.512;-0.382;2023-04-03T08:23:09;18.20;;;6.25;;
30036;SDS011;36325;51.512;-0.382;2023-04-03T08:25:40;20.00;;;4.68;;
30036;SDS011;36325;51.512;-0.382;2023-04-03T08:28:08;22.25;;;5.13;;
30036;SDS011;36325;51.512;-0.382;2023-04-03T08:30:40;13.15;;;4.82;;
30036;SDS011;36325;51.512;-0.382;2023-04-03T08:33:08;14.07;;;4.88;;
30036;SDS011;36325;51.512;-0.382;2023-04-03T08:35:40;11.32;;;4.13;;
30036;SDS011;36325;51.512;-0.382;2023-04-03T08:38:09;17.77;;;5.00;;
30036;SDS011;36325;51.512;-0.382;2023-04-03T08:40:37;12.48;;;5.10;;
30036;SDS011;36325;51.512;-0.382;2023-04-03T08:43:12;14.52;;;4.72;;
30036;SDS011;36325;51.512;-0.382;2023-04-03T08:45:57;15.35;;;4.30;;
30036;SDS011;36325;51.512;-0.382;2023-04-03T08:48:29;13.18;;;4.32;;
30036;SDS011;36325;51.512;-0.382;2023-04-03T08:51:00;10.18;;;3.85;;
30036;SDS011;36325;51.512;-0.382;2023-04-03T08:53:38;16.55;;;4.63;;
30036;SDS011;36325;51.512;-0.382;2023-04-03T08:56:09;13.07;;;4.43;;
30036;SDS011;36325;51.512;-0.382;2023-04-03T08:58:48;17.65;;;4.72;;
30036;SDS011;36325;51.512;-0.382;2023-04-03T09:04:25;18.58;;;4.40;;
30036;SDS011;36325;51.512;-0.382;2023-04-03T09:06:54;18.95;;;5.15;;
30036;SDS011;36325;51.512;-0.382;2023-04-03T09:09:36;12.38;;;5.07;;
30036;SDS011;36325;51.512;-0.382;2023-04-03T09:12:19;15.50;;;5.73;;
30036;SDS011;36325;51.512;-0.382;2023-04-03T09:15:02;15.18;;;4.50;;
30036;SDS011;36325;51.512;-0.382;2023-04-03T09:20:56;12.95;;;4.03;;
30036;SDS011;36325;51.512;-0.382;2023-04-03T09:23:30;19.92;;;4.78;;
30036;SDS011;36325;51.512;-0.382;2023-04-03T09:26:14;17.15;;;4.93;;
30036;SDS011;36325;51.512;-0.382;2023-04-03T09:28:49;13.25;;;4.82;;
30036;SDS011;36325;51.512;-0.382;2023-04-03T09:31:20;15.73;;;5.80;;
30036;SDS011;36325;51.512;-0.382;2023-04-03T09:33:54;11.27;;;5.70;;
30036;SDS011;36325;51.512;-0.382;2023-04-03T09:36:40;18.97;;;6.27;;
30036;SDS011;36325;51.512;-0.382;2023-04-03T09:39:11;16.85;;;6.20;;
30036;SDS011;36325;51.512;-0.382;2023-04-03T09:41:56;11.48;;;5.32;;
30036;SDS011;36325;51.512;-0.382;2023-04-03T09:44:33;15.32;;;5.82;;
30036;SDS011;36325;51.512;-0.382;2023-04-03T09:52:41;17.10;;;6.18;;
30036;SDS011;36325;51.512;-0.382;2023-04-03T09:55:15;12.32;;;5.50;;
30036;SDS011;36325;51.512;-0.382;2023-04-03T09:57:44;14.93;;;5.60;;
30036;SDS011;36325;51.512;-0.382;2023-04-03T10:00:28;11.40;;;5.55;;
30036;SDS011;36325;51.512;-0.382;2023-04-03T10:03:00;15.80;;;5.85;;
30036;SDS011;36325;51.512;-0.382;2023-04-03T10:10:45;17.00;;;5.82;;
30036;SDS011;36325;51.512;-0.382;2023-04-03T10:13:20;14.95;;;5.93;;
30036;SDS011;36325;51.512;-0.382;2023-04-03T10:15:50;16.00;;;5.72;;
30036;SDS011;36325;51.512;-0.382;2023-04-03T10:18:39;12.75;;;5.55;;
30036;SDS011;36325;51.512;-0.382;2023-04-03T10:21:15;9.35;;;4.70;;
30036;SDS011;36325;51.512;-0.382;2023-04-03T10:24:17;11.70;;;5.70;;
30036;SDS011;36325;51.512;-0.382;2023-04-03T10:27:06;9.02;;;5.50;;
30036;SDS011;36325;51.512;-0.382;2023-04-03T10:29:42;9.73;;;4.95;;
30036;SDS011;36325;51.512;-0.382;2023-04-03T10:35:20;15.95;;;5.20;;
30036;SDS011;36325;51.512;-0.382;2023-04-03T10:38:07;7.93;;;5.25;;
30036;SDS011;36325;51.512;-0.382;2023-04-03T10:41:04;16.33;;;4.40;;
30036;SDS011;36325;51.512;-0.382;2023-04-03T10:43:57;8.60;;;4.28;;
30036;SDS011;36325;51.512;-0.382;2023-04-03T10:57:52;16.52;;;4.97;;
30036;SDS011;36325;51.512;-0.382;2023-04-03T11:00:31;14.07;;;5.18;;
30036;SDS011;36325;51.512;-0.382;2023-04-03T11:03:12;8.25;;;3.90;;
30036;SDS011;36325;51.512;-0.382;2023-04-03T11:05:44;10.88;;;4.68;;
30036;SDS011;36325;51.512;-0.382;2023-04-03T11:11:08;9.18;;;3.80;;
30036;SDS011;36325;51.512;-0.382;2023-04-03T11:16:30;7.90;;;3.95;;
30036;SDS011;36325;51.512;-0.382;2023-04-03T11:19:20;10.45;;;4.00;;
30036;SDS011;36325;51.512;-0.382;2023-04-03T11:21:52;11.15;;;4.10;;
30036;SDS011;36325;51.512;-0.382;2023-04-03T11:24:29;10.00;;;3.95;;
30036;SDS011;36325;51.512;-0.382;2023-04-03T11:26:59;11.25;;;4.43;;
30036;SDS011;36325;51.512;-0.382;2023-04-03T11:29:32;19.60;;;3.88;;
30036;SDS011;36325;51.512;-0.382;2023-04-03T11:32:17;11.68;;;3.78;;
30036;SDS011;36325;51.512;-0.382;2023-04-03T11:34:50;14.52;;;4.30;;
30036;SDS011;36325;51.512;-0.382;2023-04-03T11:37:54;8.60;;;4.55;;
30036;SDS011;36325;51.512;-0.382;2023-04-03T11:43:17;9.07;;;3.75;;
30036;SDS011;36325;51.512;-0.382;2023-04-03T11:45:52;10.73;;;3.92;;
30036;SDS011;36325;51.512;-0.382;2023-04-03T11:50:56;12.65;;;4.20;;
30036;SDS011;36325;51.512;-0.382;2023-04-03T11:55:59;10.48;;;4.30;;
30036;SDS011;36325;51.512;-0.382;2023-04-03T12:01:45;10.00;;;4.60;;
30036;SDS011;36325;51.512;-0.382;2023-04-03T12:04:20;9.05;;;4.38;;
30036;SDS011;36325;51.512;-0.382;2023-04-03T12:07:11;8.40;;;3.83;;
30036;SDS011;36325;51.512;-0.382;2023-04-03T12:12:26;11.70;;;3.97;;
30036;SDS011;36325;51.512;-0.382;2023-04-03T12:17:47;8.00;;;4.38;;
30036;SDS011;36325;51.512;-0.382;2023-04-03T12:20:45;7.40;;;3.70;;
30036;SDS011;36325;51.512;-0.382;2023-04-03T12:23:28;7.22;;;3.60;;
30036;SDS011;36325;51.512;-0.382;2023-04-03T12:28:44;6.63;;;3.10;;
30036;SDS011;36325;51.512;-0.382;2023-04-03T12:31:13;11.50;;;3.55;;
30036;SDS011;36325;51.512;-0.382;2023-04-03T12:33:52;9.93;;;3.63;;
30036;SDS011;36325;51.512;-0.382;2023-04-03T12:36:39;8.13;;;3.90;;
30036;SDS011;36325;51.512;-0.382;2023-04-03T12:45:00;9.82;;;3.30;;
30036;SDS011;36325;51.512;-0.382;2023-04-03T12:47:44;7.07;;;3.50;;
30036;SDS011;36325;51.512;-0.382;2023-04-03T12:53:06;12.13;;;4.30;;
30036;SDS011;36325;51.512;-0.382;2023-04-03T12:55:53;5.32;;;2.90;;
30036;SDS011;36325;51.512;-0.382;2023-04-03T12:58:23;5.53;;;3.20;;
30036;SDS011;36325;51.512;-0.382;2023-04-03T13:01:08;5.32;;;2.65;;
30036;SDS011;36325;51.512;-0.382;2023-04-03T13:03:39;7.85;;;3.30;;
30036;SDS011;36325;51.512;-0.382;2023-04-03T13:06:14;6.68;;;3.10;;
30036;SDS011;36325;51.512;-0.382;2023-04-03T13:08:56;5.30;;;3.08;;
30036;SDS011;36325;51.512;-0.382;2023-04-03T13:11:27;9.98;;;3.25;;
30036;SDS011;36325;51.512;-0.382;2023-04-03T13:14:01;5.55;;;2.53;;
30036;SDS011;36325;51.512;-0.382;2023-04-03T13:16:32;7.47;;;2.95;;
30036;SDS011;36325;51.512;-0.382;2023-04-03T13:19:00;4.90;;;2.70;;
30036;SDS011;36325;51.512;-0.382;2023-04-03T13:21:28;5.75;;;2.83;;
30036;SDS011;36325;51.512;-0.382;2023-04-03T13:23:58;7.03;;;3.10;;
30036;SDS011;36325;51.512;-0.382;2023-04-03T13:26:39;8.50;;;3.25;;
30036;SDS011;36325;51.512;-0.382;2023-04-03T13:29:15;4.60;;;2.53;;
30036;SDS011;36325;51.512;-0.382;2023-04-03T13:32:05;9.15;;;2.90;;
30036;SDS011;36325;51.512;-0.382;2023-04-03T13:34:38;7.35;;;2.90;;
30036;SDS011;36325;51.512;-0.382;2023-04-03T13:37:28;11.25;;;3.65;;
30036;SDS011;36325;51.512;-0.382;2023-04-03T13:42:36;8.10;;;2.58;;
30036;SDS011;36325;51.512;-0.382;2023-04-03T13:45:18;6.53;;;2.90;;
30036;SDS011;36325;51.512;-0.382;2023-04-03T13:47:53;5.00;;;2.42;;
30036;SDS011;36325;51.512;-0.382;2023-04-03T13:53:30;6.60;;;2.42;;
30036;SDS011;36325;51.512;-0.382;2023-04-03T13:58:30;6.10;;;2.63;;
30036;SDS011;36325;51.512;-0.382;2023-04-03T14:01:15;5.70;;;2.78;;
30036;SDS011;36325;51.512;-0.382;2023-04-03T14:03:51;5.53;;;2.58;;
30036;SDS011;36325;51.512;-0.382;2023-04-03T14:06:28;5.00;;;2.83;;
30036;SDS011;36325;51.512;-0.382;2023-04-03T14:08:56;6.00;;;2.83;;
30036;SDS011;36325;51.512;-0.382;2023-04-03T14:11:28;3.78;;;2.45;;
30036;SDS011;36325;51.512;-0.382;2023-04-03T14:14:01;5.50;;;2.60;;
30036;SDS011;36325;51.512;-0.382;2023-04-03T14:16:32;7.25;;;2.53;;
30036;SDS011;36325;51.512;-0.382;2023-04-03T14:19:06;5.38;;;1.98;;
30036;SDS011;36325;51.512;-0.382;2023-04-03T14:21:34;5.85;;;2.95;;
30036;SDS011;36325;51.512;-0.382;2023-04-03T14:24:01;6.55;;;3.45;;
30036;SDS011;36325;51.512;-0.382;2023-04-03T14:26:28;5.57;;;2.95;;
30036;SDS011;36325;51.512;-0.382;2023-04-03T14:28:59;9.38;;;3.83;;
30036;SDS011;36325;51.512;-0.382;2023-04-03T14:31:27;6.28;;;2.85;;
30036;SDS011;36325;51.512;-0.382;2023-04-03T14:33:55;5.20;;;2.75;;
30036;SDS011;36325;51.512;-0.382;2023-04-03T14:36:23;7.68;;;2.88;;
30036;SDS011;36325;51.512;-0.382;2023-04-03T14:38:54;8.32;;;3.60;;
30036;SDS011;36325;51.512;-0.382;2023-04-03T14:41:23;6.82;;;3.13;;
30036;SDS011;36325;51.512;-0.382;2023-04-03T14:43:51;7.70;;;3.17;;
30036;SDS011;36325;51.512;-0.382;2023-04-03T14:46:27;9.73;;;3.80;;
30036;SDS011;36325;51.512;-0.382;2023-04-03T14:49:15;4.50;;;2.90;;
30036;SDS011;36325;51.512;-0.382;2023-04-03T14:51:47;9.07;;;3.22;;
30036;SDS011;36325;51.512;-0.382;2023-04-03T14:54:16;9.65;;;3.50;;
30036;SDS011;36325;51.512;-0.382;2023-04-03T14:56:48;6.13;;;2.78;;
30036;SDS011;36325;51.512;-0.382;2023-04-03T14:59:15;6.35;;;3.28;;
30036;SDS011;36325;51.512;-0.382;2023-04-03T15:01:45;10.07;;;3.45;;
30036;SDS011;36325;51.512;-0.382;2023-04-03T15:04:14;8.98;;;4.13;;
30036;SDS011;36325;51.512;-0.382;2023-04-03T15:06:43;5.43;;;2.80;;
30036;SDS011;36325;51.512;-0.382;2023-04-03T15:09:18;7.25;;;3.47;;
30036;SDS011;36325;51.512;-0.382;2023-04-03T15:11:50;8.45;;;3.28;;
30036;SDS011;36325;51.512;-0.382;2023-04-03T15:14:18;8.00;;;3.42;;
30036;SDS011;36325;51.512;-0.382;2023-04-03T15:16:54;9.55;;;4.28;;
30036;SDS011;36325;51.512;-0.382;2023-04-03T15:19:23;8.90;;;4.15;;
30036;SDS011;36325;51.512;-0.382;2023-04-03T15:21:53;5.18;;;3.30;;
30036;SDS011;36325;51.512;-0.382;2023-04-03T15:24:20;8.43;;;3.97;;
30036;SDS011;36325;51.512;-0.382;2023-04-03T15:26:48;5.57;;;3.30;;
30036;SDS011;36325;51.512;-0.382;2023-04-03T15:29:15;7.93;;;3.60;;
30036;SDS011;36325;51.512;-0.382;2023-04-03T15:31:43;5.93;;;3.35;;
30036;SDS011;36325;51.512;-0.382;2023-04-03T15:34:10;7.78;;;3.78;;
30036;SDS011;36325;51.512;-0.382;2023-04-03T15:36:37;7.43;;;3.58;;
30036;SDS011;36325;51.512;-0.382;2023-04-03T15:39:04;5.63;;;3.30;;
30036;SDS011;36325;51.512;-0.382;2023-04-03T15:41:32;6.50;;;3.63;;
30036;SDS011;36325;51.512;-0.382;2023-04-03T15:43:59;6.43;;;3.90;;
30036;SDS011;36325;51.512;-0.382;2023-04-03T15:46:26;11.52;;;3.72;;
30036;SDS011;36325;51.512;-0.382;2023-04-03T15:48:54;12.13;;;4.25;;
30036;SDS011;36325;51.512;-0.382;2023-04-03T15:51:21;9.85;;;3.75;;
30036;SDS011;36325;51.512;-0.382;2023-04-03T15:53:48;8.82;;;4.28;;
30036;SDS011;36325;51.512;-0.382;2023-04-03T15:56:16;9.60;;;3.90;;
30036;SDS011;36325;51.512;-0.382;2023-04-03T15:58:43;7.55;;;3.92;;
30036;SDS011;36325;51.512;-0.382;2023-04-03T16:01:10;8.73;;;4.00;;
30036;SDS011;36325;51.512;-0.382;2023-04-03T16:03:39;12.65;;;4.30;;
30036;SDS011;36325;51.512;-0.382;2023-04-03T16:06:15;6.22;;;2.92;;
30036;SDS011;36325;51.512;-0.382;2023-04-03T16:08:44;8.93;;;3.17;;
30036;SDS011;36325;51.512;-0.382;2023-04-03T16:11:12;7.03;;;3.22;;